Time;durP1;ratioP1;P1;durP2;ratioP2;P2;SDS_P1;SDS_P2;PMS_P1;PMS_P2;Temp;Humidity;BMP_temperature;BMP_pressure;BME280_temperature;BME280_humidity;BME280_pressure;Samples;Min_cycle;Max_cycle;Signal;HPM_P1;HPM_P2
2021/01/17 00:00:46;;;;;;;30.47;13.53;;;;;;;-8.10;88.41;95520.25;5110766;28;20231;-65
2021/01/17 00:03:13;;;;;;;24.87;12.23;;;;;;;-8.12;87.66;95520.44;5110498;28;20191;-65
2021/01/17 00:05:40;;;;;;;20.83;9.70;;;;;;;-8.17;86.99;95525.22;5110786;28;20286;-65
2021/01/17 00:08:09;;;;;;;19.20;9.70;;;;;;;-8.21;87.27;95518.16;5110278;28;20287;-63
2021/01/17 00:10:37;;;;;;;21.47;9.67;;;;;;;-8.23;87.88;95515.84;5110460;28;20290;-65
2021/01/17 00:13:06;;;;;;;21.77;9.73;;;;;;;-8.22;88.27;95517.41;5110018;28;20553;-65
2021/01/17 00:15:33;;;;;;;25.57;12.37;;;;;;;-8.20;88.93;95520.53;5110437;28;20565;-65
2021/01/17 00:18:00;;;;;;;20.70;10.43;;;;;;;-8.20;88.92;95515.50;5110737;28;20222;-65
2021/01/17 00:20:29;;;;;;;19.10;10.73;;;;;;;-8.23;89.20;95513.31;5110317;28;20269;-65
2021/01/17 00:23:00;;;;;;;22.77;11.43;;;;;;;-8.25;88.88;95515.22;5110198;28;20260;-65
2021/01/17 00:25:29;;;;;;;24.43;12.67;;;;;;;-8.24;89.15;95514.28;5110530;28;20614;-65
2021/01/17 00:27:56;;;;;;;27.70;12.60;;;;;;;-8.27;88.75;95509.59;5110231;28;20251;-65
2021/01/17 00:30:25;;;;;;;24.50;12.37;;;;;;;-8.34;88.80;95504.50;5110226;28;20267;-64
2021/01/17 00:32:54;;;;;;;24.70;11.37;;;;;;;-8.30;88.78;95509.97;5110217;28;20712;-66
2021/01/17 00:35:22;;;;;;;26.50;11.40;;;;;;;-8.21;88.31;95508.88;5110473;28;20229;-65
2021/01/17 00:37:52;;;;;;;22.93;11.00;;;;;;;-8.17;88.25;95507.59;5110533;28;20223;-65
2021/01/17 00:40:19;;;;;;;19.77;10.23;;;;;;;-8.13;88.38;95510.53;5110132;28;20191;-65
2021/01/17 00:42:47;;;;;;;20.10;9.77;;;;;;;-7.98;88.15;95503.72;5110088;28;20278;-65
2021/01/17 00:45:15;;;;;;;21.60;11.47;;;;;;;-8.05;88.31;95503.63;5110141;28;20737;-65
2021/01/17 00:47:45;;;;;;;22.20;10.83;;;;;;;-8.06;88.59;95507.09;5110073;28;20274;-65
2021/01/17 00:50:13;;;;;;;22.20;10.67;;;;;;;-8.06;89.07;95502.06;5110100;28;20637;-65
2021/01/17 00:52:40;;;;;;;23.30;12.03;;;;;;;-8.06;88.76;95503.81;5109939;28;20230;-65
2021/01/17 00:55:08;;;;;;;22.43;11.00;;;;;;;-8.09;89.27;95502.44;5110306;28;20229;-64
2021/01/17 00:57:36;;;;;;;23.13;10.33;;;;;;;-8.15;88.80;95505.66;5110053;28;20278;-64
2021/01/17 01:00:05;;;;;;;23.27;11.77;;;;;;;-8.14;88.65;95506.44;5110102;28;20282;-66
2021/01/17 01:02:32;;;;;;;25.13;11.77;;;;;;;-8.19;89.27;95504.44;5109897;28;20682;-65
2021/01/17 01:04:59;;;;;;;24.37;11.40;;;;;;;-8.23;89.31;95505.78;5109868;28;20282;-66
2021/01/17 01:07:27;;;;;;;30.53;11.40;;;;;;;-8.26;89.27;95511.94;5110107;28;20279;-65
2021/01/17 01:09:54;;;;;;;27.63;12.23;;;;;;;-8.21;89.18;95513.91;5109999;28;20582;-65
2021/01/17 01:12:20;;;;;;;25.10;11.57;;;;;;;-8.27;88.80;95514.66;5109485;28;20231;-65
2021/01/17 01:14:47;;;;;;;25.23;10.63;;;;;;;-8.36;89.00;95505.63;5109772;28;20241;-66
2021/01/17 01:17:15;;;;;;;19.43;10.23;;;;;;;-8.30;88.56;95507.44;5109757;28;20235;-65
2021/01/17 01:19:42;;;;;;;20.87;10.13;;;;;;;-8.37;88.60;95504.84;5110909;28;20206;-65
2021/01/17 01:22:09;;;;;;;19.97;9.70;;;;;;;-8.44;88.06;95500.69;5113750;28;20230;-65
2021/01/17 01:24:35;;;;;;;15.10;7.73;;;;;;;-8.40;88.59;95505.22;5113661;28;20282;-65
2021/01/17 01:27:03;;;;;;;23.07;10.30;;;;;;;-8.33;89.21;95506.09;5113666;28;20241;-65
2021/01/17 01:29:29;;;;;;;22.13;11.60;;;;;;;-8.33;88.77;95515.38;5113378;28;20191;-65
2021/01/17 01:31:56;;;;;;;24.30;12.50;;;;;;;-8.30;89.45;95520.84;5113152;28;20302;-65
2021/01/17 01:34:24;;;;;;;25.77;12.67;;;;;;;-8.36;89.23;95511.44;5113162;28;20784;-65
2021/01/17 01:36:51;;;;;;;22.97;11.97;;;;;;;-8.40;89.42;95505.22;5113136;28;20274;-65
2021/01/17 01:39:18;;;;;;;16.97;9.37;;;;;;;-8.43;89.50;95500.53;5113313;28;20226;-65
2021/01/17 01:41:45;;;;;;;18.13;10.13;;;;;;;-8.35;88.59;95507.97;5113092;28;20332;-64
2021/01/17 01:44:11;;;;;;;20.17;9.93;;;;;;;-8.30;87.76;95504.94;5113136;28;20290;-65
2021/01/17 01:46:40;;;;;;;20.27;11.07;;;;;;;-8.33;87.39;95503.56;5113156;28;20224;-65
2021/01/17 01:49:08;;;;;;;16.70;9.20;;;;;;;-8.20;87.14;95505.41;5112908;28;20240;-64
2021/01/17 01:51:37;;;;;;;18.57;9.40;;;;;;;-8.26;87.92;95511.94;5112837;28;20238;-66
2021/01/17 01:54:06;;;;;;;25.40;10.50;;;;;;;-8.34;87.49;95508.75;5112719;28;20231;-66
2021/01/17 01:56:34;;;;;;;18.60;10.07;;;;;;;-8.33;87.58;95510.34;5112765;28;20227;-65
2021/01/17 01:59:04;;;;;;;21.93;10.43;;;;;;;-8.38;87.46;95510.09;5112901;28;20199;-66
2021/01/17 02:01:31;;;;;;;20.93;10.43;;;;;;;-8.41;87.30;95507.88;5112928;28;20270;-65
2021/01/17 02:03:58;;;;;;;20.67;10.77;;;;;;;-8.35;87.04;95502.94;5112691;28;20550;-65
2021/01/17 02:06:26;;;;;;;17.60;10.03;;;;;;;-8.50;87.47;95514.00;5112766;28;20517;-65
2021/01/17 02:09:22;;;;;;;18.23;9.70;;;;;;;-8.53;87.06;95504.28;5112668;28;20232;-65
2021/01/17 02:12:27;;;;;;;17.77;9.13;;;;;;;-8.76;86.77;95507.66;5112679;28;20667;-65
2021/01/17 02:15:00;;;;;;;16.23;8.53;;;;;;;-8.66;87.12;95509.91;5010037;28;20203;-64
2021/01/17 02:17:29;;;;;;;18.83;9.37;;;;;;;-8.71;86.79;95499.56;5009918;28;20217;-65
2021/01/17 02:20:11;;;;;;;17.97;8.87;;;;;;;-8.61;87.28;95491.75;5065389;28;20195;-65
2021/01/17 02:22:58;;;;;;;18.67;9.10;;;;;;;-8.57;87.27;95490.47;5112506;28;20197;-65
2021/01/17 02:25:31;;;;;;;15.27;8.33;;;;;;;-8.63;87.07;95494.47;5112653;28;20226;-65
2021/01/17 02:28:00;;;;;;;17.63;9.47;;;;;;;-8.61;86.77;95496.78;5112185;28;20191;-65
2021/01/17 02:30:31;;;;;;;18.70;9.23;;;;;;;-8.65;86.51;95493.06;5111995;28;20278;-66
2021/01/17 02:33:01;;;;;;;18.27;9.13;;;;;;;-8.74;86.51;95487.34;5112300;28;20679;-66
2021/01/17 02:35:31;;;;;;;30.40;12.73;;;;;;;-8.89;86.57;95487.34;5112035;28;20274;-65
2021/01/17 02:38:15;;;;;;;109.73;29.50;;;;;;;-8.91;87.21;95479.19;5112044;28;20191;-65
2021/01/17 02:40:52;;;;;;;28.50;11.37;;;;;;;-8.84;86.93;95497.69;5111965;28;20195;-65
2021/01/17 02:43:20;;;;;;;21.50;10.07;;;;;;;-8.86;87.28;95504.59;5111981;28;20262;-64
2021/01/17 02:45:47;;;;;;;16.70;7.80;;;;;;;-8.80;86.36;95508.16;5112071;28;20292;-65
2021/01/17 02:48:14;;;;;;;16.20;8.17;;;;;;;-8.80;85.95;95519.03;5111990;28;20195;-65
2021/01/17 02:50:41;;;;;;;13.77;7.40;;;;;;;-8.88;86.04;95508.28;5111945;28;20278;-65
2021/01/17 02:53:15;;;;;;;19.43;8.80;;;;;;;-8.78;85.55;95516.34;5111508;28;20780;-65
2021/01/17 02:55:43;;;;;;;21.13;10.73;;;;;;;-8.74;85.41;95505.75;5111710;28;20238;-65
2021/01/17 02:58:11;;;;;;;22.60;10.00;;;;;;;-8.71;84.85;95500.34;5111856;28;20274;-65
2021/01/17 03:00:40;;;;;;;26.50;11.67;;;;;;;-8.66;84.95;95488.97;5111418;28;20244;-65
2021/01/17 03:03:08;;;;;;;21.30;10.93;;;;;;;-8.70;85.03;95488.56;5111497;28;20192;-65
2021/01/17 03:05:36;;;;;;;25.70;10.73;;;;;;;-8.69;84.88;95490.13;5111413;28;20290;-65
2021/01/17 03:08:06;;;;;;;27.83;11.73;;;;;;;-8.66;85.50;95488.97;5111767;28;20572;-65
2021/01/17 03:10:33;;;;;;;18.60;9.90;;;;;;;-8.61;85.65;95486.72;5111378;28;20241;-65
2021/01/17 03:13:02;;;;;;;18.80;9.27;;;;;;;-8.57;85.43;95485.44;5111208;28;20773;-65
2021/01/17 03:15:33;;;;;;;16.67;8.83;;;;;;;-8.57;84.88;95493.00;5111349;28;20281;-63
2021/01/17 03:18:01;;;;;;;17.13;8.23;;;;;;;-8.54;84.73;95493.41;5111317;28;20603;-65
2021/01/17 03:20:28;;;;;;;14.47;8.07;;;;;;;-8.49;84.57;95496.19;5111162;28;20192;-65
2021/01/17 03:22:55;;;;;;;19.13;9.10;;;;;;;-8.59;83.93;95499.94;5111048;28;20671;-65
2021/01/17 03:25:22;;;;;;;16.17;8.73;;;;;;;-8.57;83.80;95503.84;5111115;28;20192;-64
2021/01/17 03:27:48;;;;;;;19.43;8.60;;;;;;;-8.60;83.66;95500.88;5111151;28;20699;-65
2021/01/17 03:30:17;;;;;;;16.43;8.03;;;;;;;-8.58;83.84;95496.47;5111032;28;20284;-65
2021/01/17 03:32:44;;;;;;;18.03;8.77;;;;;;;-8.50;83.51;95489.59;5110852;28;20273;-65
2021/01/17 03:35:11;;;;;;;14.53;7.97;;;;;;;-8.49;84.29;95491.16;5110918;28;20655;-65
2021/01/17 03:37:38;;;;;;;15.93;8.27;;;;;;;-8.49;83.82;95485.34;5110869;28;20848;-65
2021/01/17 03:40:06;;;;;;;15.10;8.63;;;;;;;-8.50;84.66;95493.84;5110991;28;20350;-65
2021/01/17 03:42:33;;;;;;;18.67;9.03;;;;;;;-8.58;85.14;95491.44;5110352;28;20279;-65
2021/01/17 03:45:00;;;;;;;17.73;9.73;;;;;;;-8.48;86.03;95491.94;5110667;28;20630;-65
2021/01/17 03:47:28;;;;;;;20.57;9.50;;;;;;;-8.47;85.65;95485.94;5111232;28;20196;-65
2021/01/17 03:49:55;;;;;;;20.10;9.83;;;;;;;-8.45;85.94;95486.53;5111378;28;20205;-65
2021/01/17 03:52:22;;;;;;;15.77;8.60;;;;;;;-8.42;86.65;95488.72;5110938;28;20280;-64
2021/01/17 03:54:49;;;;;;;18.63;9.87;;;;;;;-8.36;86.39;95491.28;5110560;28;20266;-65
2021/01/17 03:57:15;;;;;;;17.37;9.40;;;;;;;-8.38;86.80;95494.97;5110622;28;20279;-65
2021/01/17 03:59:42;;;;;;;28.67;13.37;;;;;;;-8.29;87.08;95496.41;5110446;28;20194;-65
2021/01/17 04:02:09;;;;;;;29.80;13.97;;;;;;;-8.19;86.76;95498.63;5110464;28;20279;-66
2021/01/17 04:04:37;;;;;;;29.77;14.70;;;;;;;-8.11;86.74;95501.03;5110723;28;20274;-65
2021/01/17 04:07:04;;;;;;;25.63;11.37;;;;;;;-8.10;85.95;95505.91;5110392;28;20198;-64
2021/01/17 04:09:30;;;;;;;21.33;10.67;;;;;;;-8.16;86.06;95504.09;5110446;28;20192;-65
2021/01/17 04:11:57;;;;;;;19.87;10.80;;;;;;;-8.13;85.58;95511.31;5110347;28;20676;-65
2021/01/17 04:14:24;;;;;;;22.43;10.23;;;;;;;-8.18;85.61;95503.50;5110157;28;20318;-65
2021/01/17 04:16:52;;;;;;;26.23;10.53;;;;;;;-8.24;85.85;95509.25;5110307;28;20238;-65
2021/01/17 04:19:19;;;;;;;20.33;10.53;;;;;;;-8.12;85.26;95512.88;5110432;28;20281;-65
2021/01/17 04:21:47;;;;;;;23.53;11.87;;;;;;;-8.28;85.53;95508.81;5110463;28;20198;-65
2021/01/17 04:24:14;;;;;;;34.17;16.97;;;;;;;-8.30;84.49;95503.19;5110246;28;20280;-65
2021/01/17 04:26:41;;;;;;;39.20;17.47;;;;;;;-8.49;84.16;95508.78;5110059;28;20196;-64
2021/01/17 04:29:08;;;;;;;31.97;15.60;;;;;;;-8.66;83.82;95509.91;5110668;28;20199;-65
2021/01/17 04:31:42;;;;;;;25.73;12.67;;;;;;;-8.75;84.74;95509.22;5110249;28;20834;-65
2021/01/17 04:34:10;;;;;;;27.07;13.27;;;;;;;-8.76;84.47;95500.09;5110173;28;20310;-65
2021/01/17 04:36:37;;;;;;;23.47;12.10;;;;;;;-8.81;84.67;95494.81;5110144;28;20281;-65
2021/01/17 04:39:06;;;;;;;24.20;11.20;;;;;;;-8.87;84.87;95508.09;5110071;28;20274;-65
2021/01/17 04:41:35;;;;;;;23.67;11.53;;;;;;;-8.85;85.01;95511.22;5110199;28;20192;-65
2021/01/17 04:44:05;;;;;;;21.17;9.67;;;;;;;-8.83;85.77;95511.84;5110336;28;20227;-65
2021/01/17 04:46:32;;;;;;;21.23;9.93;;;;;;;-8.92;86.69;95507.06;5110138;28;20202;-66
2021/01/17 04:49:02;;;;;;;20.37;10.53;;;;;;;-8.87;88.36;95513.13;5110128;28;20223;-64
2021/01/17 04:51:29;;;;;;;22.63;12.33;;;;;;;-8.78;89.02;95507.06;5110224;28;20195;-65
2021/01/17 04:53:58;;;;;;;25.30;12.50;;;;;;;-8.71;89.24;95505.41;5109877;28;20258;-65
2021/01/17 04:56:28;;;;;;;20.80;10.67;;;;;;;-8.65;89.68;95513.22;5114398;28;20199;-65
2021/01/17 04:59:23;;;;;;;19.63;10.67;;;;;;;-8.68;89.53;95511.84;5114032;28;20197;-65
2021/01/17 05:02:05;;;;;;;20.63;11.40;;;;;;;-8.65;89.50;95511.47;5096358;28;20195;-64
2021/01/17 05:05:06;;;;;;;26.47;12.43;;;;;;;-8.57;89.58;95508.09;5114141;28;20251;-65
2021/01/17 05:07:36;;;;;;;25.93;12.10;;;;;;;-8.48;88.55;95509.56;5114073;28;20607;-65
2021/01/17 05:10:07;;;;;;;26.73;11.97;;;;;;;-8.56;88.75;95507.13;5114071;28;20638;-64
2021/01/17 05:12:39;;;;;;;22.73;11.13;;;;;;;-8.57;88.79;95513.13;5113560;28;20223;-65
2021/01/17 05:15:07;;;;;;;25.33;11.83;;;;;;;-8.64;88.87;95510.53;5113920;28;20227;-66
2021/01/17 05:17:39;;;;;;;24.27;11.37;;;;;;;-8.54;88.95;95512.78;5113968;28;20257;-65
2021/01/17 05:20:07;;;;;;;23.67;11.97;;;;;;;-8.56;88.67;95517.97;5114015;28;20250;-65
2021/01/17 05:22:35;;;;;;;25.97;11.60;;;;;;;-8.57;89.07;95518.97;5113611;28;20287;-65
2021/01/17 05:25:05;;;;;;;27.03;12.40;;;;;;;-8.58;88.52;95517.38;5113441;28;20666;-65
2021/01/17 05:27:32;;;;;;;22.13;11.33;;;;;;;-8.60;88.62;95523.53;5113479;28;20237;-64
2021/01/17 05:30:00;;;;;;;23.43;11.67;;;;;;;-8.66;88.66;95512.44;5113858;28;20318;-66
2021/01/17 05:32:27;;;;;;;24.97;11.87;;;;;;;-8.64;88.90;95512.25;5113267;28;20211;-65
2021/01/17 05:34:54;;;;;;;25.90;13.20;;;;;;;-8.66;88.41;95506.59;5113279;28;20223;-64
2021/01/17 05:37:21;;;;;;;26.93;12.53;;;;;;;-8.63;88.68;95508.78;5113241;28;20283;-65
2021/01/17 05:39:58;;;;;;;29.87;12.73;;;;;;;-8.67;88.37;95518.44;5113024;28;20227;-65
2021/01/17 05:42:27;;;;;;;24.40;12.37;;;;;;;-8.76;87.73;95525.28;5113120;28;20273;-65
2021/01/17 05:44:55;;;;;;;26.77;13.07;;;;;;;-8.78;87.43;95527.19;5113054;28;20290;-66
2021/01/17 05:47:25;;;;;;;24.87;12.70;;;;;;;-8.80;87.53;95518.25;5113152;28;20202;-65
2021/01/17 05:50:04;;;;;;;22.47;12.30;;;;;;;-8.87;86.86;95528.25;5113276;28;20200;-64
2021/01/17 05:52:31;;;;;;;24.77;11.77;;;;;;;-8.89;86.83;95529.34;5113039;28;20283;-65
2021/01/17 05:54:58;;;;;;;24.87;12.67;;;;;;;-8.87;87.02;95527.47;5112777;28;20276;-64
2021/01/17 05:57:25;;;;;;;25.83;12.53;;;;;;;-8.77;87.16;95523.72;5112958;28;20203;-65
2021/01/17 05:59:53;;;;;;;24.57;12.00;;;;;;;-8.73;87.00;95524.94;5112786;28;20206;-65
2021/01/17 06:02:22;;;;;;;24.60;11.50;;;;;;;-8.78;86.92;95521.38;5112716;28;20191;-65
2021/01/17 06:04:54;;;;;;;20.47;11.97;;;;;;;-8.77;86.62;95527.97;5112502;28;20287;-64
2021/01/17 06:07:23;;;;;;;21.47;11.17;;;;;;;-8.88;83.38;95526.66;5112561;28;20673;-65
2021/01/17 06:09:57;;;;;;;18.63;9.33;;;;;;;-8.97;82.66;95526.94;5112856;28;20312;-65
2021/01/17 06:12:31;;;;;;;19.10;9.13;;;;;;;-9.16;82.33;95523.94;5112538;28;20223;-65
2021/01/17 06:15:09;;;;;;;16.60;10.33;;;;;;;-9.08;82.96;95528.13;5112366;28;20232;-65
2021/01/17 06:17:38;;;;;;;18.43;11.10;;;;;;;-9.13;82.91;95517.78;5112489;28;20278;-65
2021/01/17 06:20:08;;;;;;;17.60;9.83;;;;;;;-9.13;83.50;95517.78;5112513;28;20692;-65
2021/01/17 06:22:36;;;;;;;24.33;10.70;;;;;;;-9.08;82.88;95528.13;5112350;28;20191;-65
2021/01/17 06:25:07;;;;;;;28.53;11.50;;;;;;;-9.04;83.02;95531.06;5112230;28;20223;-65
2021/01/17 06:27:34;;;;;;;22.60;12.27;;;;;;;-9.09;81.96;95524.03;5112198;28;20219;-65
2021/01/17 06:30:00;;;;;;;31.93;13.37;;;;;;;-9.08;82.70;95524.81;5112388;28;20279;-66
2021/01/17 06:32:31;;;;;;;38.70;16.57;;;;;;;-9.16;82.45;95518.91;5112017;28;20217;-64
2021/01/17 06:34:59;;;;;;;36.40;16.80;;;;;;;-9.14;83.08;95521.25;5112015;28;20219;-65
2021/01/17 06:37:29;;;;;;;33.80;14.63;;;;;;;-9.06;82.33;95522.94;5111998;28;20274;-65
2021/01/17 06:39:57;;;;;;;30.70;13.83;;;;;;;-8.89;81.94;95520.06;5111962;28;20202;-65
2021/01/17 06:42:25;;;;;;;32.00;13.53;;;;;;;-8.84;82.13;95527.09;5111844;28;20282;-66
2021/01/17 06:44:53;;;;;;;22.33;10.90;;;;;;;-8.78;82.62;95531.44;5111905;28;20195;-64
2021/01/17 06:47:21;;;;;;;20.40;10.53;;;;;;;-8.67;82.81;95537.78;5111889;28;20721;-65
2021/01/17 06:49:49;;;;;;;23.90;10.47;;;;;;;-8.64;83.27;95532.41;5111756;28;20287;-64
2021/01/17 06:52:17;;;;;;;18.03;10.70;;;;;;;-8.45;83.03;95542.72;5111727;28;20195;-65
2021/01/17 06:54:46;;;;;;;23.83;14.13;;;;;;;-8.34;83.04;95541.50;5111657;28;20276;-64
2021/01/17 06:57:14;;;;;;;22.37;12.67;;;;;;;-8.02;82.38;95550.41;5111941;28;20687;-65
2021/01/17 06:59:42;;;;;;;22.73;12.20;;;;;;;-7.63;82.07;95550.81;5111634;28;20231;-64
2021/01/17 07:02:39;;;;;;;51.90;18.70;;;;;;;-7.33;80.62;95556.53;5111540;28;20187;-65
2021/01/17 07:05:36;;;;;;;22.60;10.40;;;;;;;-6.96;79.43;95552.94;5111466;28;20197;-64
2021/01/17 07:08:42;;;;;;;14.33;7.97;;;;;;;-6.58;76.99;95544.06;5111633;28;20194;-64
2021/01/17 07:11:22;;;;;;;12.43;7.17;;;;;;;-6.29;76.39;95553.16;5111393;28;20743;-64
2021/01/17 07:13:50;;;;;;;13.93;7.90;;;;;;;-6.16;75.82;95545.63;5111588;28;20380;-64
2021/01/17 07:16:32;;;;;;;15.23;7.70;;;;;;;-5.97;75.73;95543.38;5111524;28;20197;-65
2021/01/17 07:19:07;;;;;;;21.07;9.93;;;;;;;-6.02;76.94;95543.94;5110888;28;20190;-64
2021/01/17 07:21:36;;;;;;;22.27;11.17;;;;;;;-5.91;77.99;95540.09;5111103;28;20204;-65
2021/01/17 07:24:05;;;;;;;20.37;10.13;;;;;;;-5.74;78.43;95546.34;5111181;28;20195;-64
2021/01/17 07:26:47;;;;;;;27.67;12.80;;;;;;;-5.47;78.77;95545.41;5111052;28;20704;-65
2021/01/17 07:29:17;;;;;;;26.03;14.27;;;;;;;-5.56;79.53;95548.31;5111263;28;20200;-65
2021/01/17 07:31:47;;;;;;;21.73;11.93;;;;;;;-5.39;79.53;95545.25;5110815;28;20256;-65
2021/01/17 07:34:15;;;;;;;25.17;12.17;;;;;;;-5.36;79.22;95549.13;5110993;28;20225;-64
2021/01/17 07:36:48;;;;;;;20.57;11.87;;;;;;;-5.15;78.12;95556.56;5111161;28;20281;-65
2021/01/17 07:39:18;;;;;;;22.13;11.23;;;;;;;-5.39;78.51;95541.94;5110841;28;20195;-63
2021/01/17 07:41:49;;;;;;;23.53;11.40;;;;;;;-5.33;78.25;95539.41;5110785;28;20254;-64
2021/01/17 07:44:21;;;;;;;20.90;10.73;;;;;;;-5.28;78.87;95536.31;5111023;28;20195;-64
2021/01/17 07:46:48;;;;;;;22.20;10.63;;;;;;;-5.08;77.63;95533.78;5110838;28;20238;-64
2021/01/17 07:49:16;;;;;;;19.33;10.63;;;;;;;-5.00;77.12;95534.38;5110825;28;20281;-64
2021/01/17 07:51:44;;;;;;;22.10;10.57;;;;;;;-5.15;78.54;95531.25;5110480;28;20577;-64
2021/01/17 07:54:20;;;;;;;22.50;10.87;;;;;;;-5.15;77.52;95535.53;5110492;28;20266;-64
2021/01/17 07:56:49;;;;;;;19.63;10.33;;;;;;;-5.00;77.75;95533.59;5110721;28;20281;-65
2021/01/17 07:59:24;;;;;;;19.20;11.03;;;;;;;-5.16;77.15;95539.81;5110541;28;20583;-65
2021/01/17 08:01:52;;;;;;;22.43;12.07;;;;;;;-5.23;79.33;95544.09;5110673;28;20191;-65
2021/01/17 08:04:26;;;;;;;25.00;11.90;;;;;;;-5.29;78.34;95543.13;5110685;28;20209;-64
2021/01/17 08:06:58;;;;;;;25.33;12.33;;;;;;;-5.37;78.62;95545.81;5110693;28;20198;-64
2021/01/17 08:09:48;;;;;;;22.07;11.47;;;;;;;-5.49;78.78;95546.59;5110598;28;20250;-65
2021/01/17 08:12:39;;;;;;;22.20;11.87;;;;;;;-5.58;79.68;95558.66;5110397;28;20227;-65
2021/01/17 08:15:17;;;;;;;24.03;11.60;;;;;;;-5.48;80.23;95556.50;5110267;28;20234;-65
2021/01/17 08:17:44;;;;;;;23.70;11.73;;;;;;;-5.55;80.02;95555.72;5110360;28;20196;-65
2021/01/17 08:20:21;;;;;;;22.90;11.10;;;;;;;-5.36;80.04;95549.91;5110368;28;20195;-64
2021/01/17 08:22:48;;;;;;;22.70;11.33;;;;;;;-5.46;80.07;95544.44;5110382;28;20286;-64
2021/01/17 08:25:34;;;;;;;24.83;12.93;;;;;;;-5.34;80.57;95548.00;5110815;28;20203;-65
2021/01/17 08:28:49;;;;;;;22.33;12.00;;;;;;;-5.22;81.18;95548.97;5110635;28;20680;-64
2021/01/17 08:31:43;;;;;;;19.63;9.90;;;;;;;-5.56;79.24;95551.63;5114553;28;20224;-65
2021/01/17 08:34:24;;;;;;;22.20;11.93;;;;;;;-5.40;79.17;95553.03;5114879;28;20615;-64
2021/01/17 08:36:52;;;;;;;24.37;10.93;;;;;;;-5.55;78.90;95550.66;5114363;28;20198;-65
2021/01/17 08:39:43;;;;;;;22.23;10.00;;;;;;;-5.45;80.86;95563.75;5114327;28;20211;-65
2021/01/17 08:42:33;;;;;;;23.73;10.37;;;;;;;-5.26;79.13;95562.19;5114242;28;20201;-65
2021/01/17 08:45:02;;;;;;;19.20;9.80;;;;;;;-4.97;80.28;95571.97;5114225;28;20194;-65
2021/01/17 08:47:34;;;;;;;18.13;9.63;;;;;;;-4.55;77.75;95570.78;5114071;28;20282;-64
2021/01/17 08:50:02;;;;;;;19.33;10.23;;;;;;;-4.25;77.33;95577.94;5114134;28;20767;-66
2021/01/17 08:52:30;;;;;;;23.07;10.80;;;;;;;-4.02;75.27;95576.50;5114004;28;20223;-64
2021/01/17 08:54:57;;;;;;;21.87;11.47;;;;;;;-4.08;75.79;95577.28;5113985;28;20632;-64
2021/01/17 08:57:42;;;;;;;114.73;36.37;;;;;;;-4.23;73.17;95576.00;5113860;28;20681;-65
2021/01/17 09:00:13;;;;;;;26.50;13.37;;;;;;;-4.45;76.05;95567.84;5114406;28;20199;-65
2021/01/17 09:02:40;;;;;;;23.50;11.53;;;;;;;-4.20;75.82;95570.53;5114108;28;20210;-65
2021/01/17 09:05:17;;;;;;;22.40;11.27;;;;;;;-4.19;75.96;95561.94;5113993;28;20294;-65
2021/01/17 09:07:45;;;;;;;18.63;10.40;;;;;;;-4.22;76.23;95565.63;5113790;28;20225;-64
2021/01/17 09:10:15;;;;;;;19.77;10.27;;;;;;;-3.93;76.33;95577.06;5113733;28;20194;-64
2021/01/17 09:12:42;;;;;;;23.27;12.13;;;;;;;-3.96;74.34;95570.63;5113491;28;20338;-64
2021/01/17 09:15:20;;;;;;;23.83;10.97;;;;;;;-3.92;74.67;95564.16;5113627;28;20223;-64
2021/01/17 09:17:58;;;;;;;24.97;12.13;;;;;;;-4.00;75.26;95568.69;5113499;28;20677;-65
2021/01/17 09:20:26;;;;;;;20.80;11.13;;;;;;;-3.76;73.67;95562.94;5113646;28;20195;-62
2021/01/17 09:22:55;;;;;;;20.17;10.27;;;;;;;-3.59;74.26;95565.81;5113510;28;20227;-65
2021/01/17 09:25:23;;;;;;;16.30;8.63;;;;;;;-3.33;71.62;95560.56;5113631;28;20191;-65
2021/01/17 09:27:50;;;;;;;17.83;9.70;;;;;;;-3.45;70.90;95559.66;5113531;28;20297;-65
2021/01/17 09:30:22;;;;;;;16.43;8.07;;;;;;;-3.10;71.23;95552.41;5113321;28;20198;-65
2021/01/17 09:32:50;;;;;;;19.30;8.83;;;;;;;-2.82;69.62;95540.06;5113503;28;20192;-65
2021/01/17 09:35:16;;;;;;;16.87;9.70;;;;;;;-2.71;70.37;95547.00;5113171;28;20311;-64
2021/01/17 09:37:44;;;;;;;19.37;9.03;;;;;;;-2.52;70.13;95534.31;5113172;28;20776;-65
2021/01/17 09:40:11;;;;;;;16.33;9.73;;;;;;;-2.15;68.93;95538.44;5112766;28;20204;-64
2021/01/17 09:42:38;;;;;;;17.23;9.40;;;;;;;-2.17;67.31;95533.56;5113264;28;20298;-64
2021/01/17 09:45:08;;;;;;;15.50;8.43;;;;;;;-2.31;67.79;95529.59;5113162;28;20199;-65
2021/01/17 09:47:37;;;;;;;16.67;8.47;;;;;;;-2.19;68.03;95529.66;5113251;28;20277;-65
2021/01/17 09:50:08;;;;;;;16.30;9.00;;;;;;;-2.13;66.86;95522.94;5113186;28;20230;-65
2021/01/17 09:52:38;;;;;;;20.17;9.50;;;;;;;-2.02;67.38;95525.56;5112906;28;20191;-65
2021/01/17 09:55:08;;;;;;;17.57;9.43;;;;;;;-2.03;66.18;95524.00;5112860;28;20232;-64
2021/01/17 09:57:38;;;;;;;16.50;8.97;;;;;;;-2.57;67.11;95513.81;5112784;28;20193;-65
2021/01/17 10:00:08;;;;;;;16.40;9.27;;;;;;;-2.24;67.09;95512.50;5112678;28;20282;-65
2021/01/17 10:02:37;;;;;;;19.13;9.73;;;;;;;-1.96;66.43;95503.56;5113107;28;20228;-64
2021/01/17 10:05:05;;;;;;;14.27;9.07;;;;;;;-1.76;66.22;95502.34;5112932;28;20212;-65
2021/01/17 10:07:32;;;;;;;18.60;9.20;;;;;;;-1.90;66.82;95500.16;5112665;28;20279;-64
2021/01/17 10:09:59;;;;;;;20.20;10.07;;;;;;;-1.63;66.96;95501.38;5112673;28;20752;-65
2021/01/17 10:12:26;;;;;;;17.67;9.50;;;;;;;-1.61;63.30;95496.06;5112223;28;20283;-66
2021/01/17 10:14:53;;;;;;;16.03;8.30;;;;;;;-1.75;63.46;95496.25;5112403;28;20310;-65
2021/01/17 10:17:20;;;;;;;16.70;8.87;;;;;;;-1.35;64.80;95490.59;5112478;28;20280;-64
2021/01/17 10:19:49;;;;;;;17.50;9.60;;;;;;;-1.51;64.37;95492.00;5112369;28;20247;-66
2021/01/17 10:22:17;;;;;;;15.43;8.43;;;;;;;-1.17;63.26;95487.97;5112310;28;20336;-66
2021/01/17 10:24:45;;;;;;;15.70;7.93;;;;;;;-1.13;60.81;95491.63;5112251;28;20281;-63
2021/01/17 10:27:16;;;;;;;15.83;7.50;;;;;;;-1.01;62.55;95489.09;5112279;28;20277;-66
2021/01/17 10:29:43;;;;;;;12.83;7.37;;;;;;;-1.63;61.35;95481.00;5112382;28;20207;-66
2021/01/17 10:32:12;;;;;;;14.97;7.13;;;;;;;-2.24;62.74;95491.34;5112413;28;20254;-62
2021/01/17 10:34:42;;;;;;;13.93;7.47;;;;;;;-2.16;64.52;95483.44;5112115;28;20234;-65
2021/01/17 10:37:12;;;;;;;13.10;8.00;;;;;;;-1.82;64.63;95482.03;5111979;28;20278;-65
2021/01/17 10:39:41;;;;;;;14.73;7.70;;;;;;;-1.64;63.15;95476.88;5112353;28;20235;-65
2021/01/17 10:42:12;;;;;;;11.20;6.97;;;;;;;-1.91;62.56;95476.47;5112008;28;20191;-64
2021/01/17 10:44:50;;;;;;;16.93;8.50;;;;;;;-2.11;61.64;95475.94;5111988;28;20187;-65
2021/01/17 10:47:34;;;;;;;29.77;14.10;;;;;;;-2.16;62.86;95468.16;5111969;28;20191;-65
2021/01/17 10:50:06;;;;;;;46.90;17.37;;;;;;;-2.00;63.52;95472.69;5111716;28;20291;-64
2021/01/17 10:52:38;;;;;;;12.90;7.27;;;;;;;-2.01;62.17;95466.03;5110820;28;20195;-65
2021/01/17 10:55:07;;;;;;;12.10;6.77;;;;;;;-2.22;61.75;95463.94;5111919;28;20361;-65
2021/01/17 10:57:37;;;;;;;12.63;7.00;;;;;;;-2.00;62.13;95465.03;5111830;28;20277;-64
2021/01/17 11:00:08;;;;;;;13.87;7.07;;;;;;;-1.84;62.78;95459.31;5112007;28;20227;-65
2021/01/17 11:02:35;;;;;;;12.03;6.30;;;;;;;-1.67;61.86;95456.94;5111478;28;20192;-64
2021/01/17 11:05:06;;;;;;;13.17;7.27;;;;;;;-1.57;61.71;95459.75;5111615;28;20231;-65
2021/01/17 11:07:34;;;;;;;13.77;7.60;;;;;;;-1.90;61.68;95457.66;5111571;28;20215;-65
2021/01/17 11:10:14;;;;;;;11.43;6.80;;;;;;;-1.59;61.31;95460.94;5111355;28;20577;-64
2021/01/17 11:12:42;;;;;;;13.40;6.47;;;;;;;-1.56;59.94;95448.56;5111111;28;20713;-65
2021/01/17 11:15:11;;;;;;;11.90;7.10;;;;;;;-1.68;61.16;95457.94;5111205;28;20220;-64
2021/01/17 11:17:38;;;;;;;13.20;7.47;;;;;;;-1.56;59.84;95460.53;5111177;28;20616;-64
2021/01/17 11:20:08;;;;;;;13.03;7.10;;;;;;;-1.15;61.89;95446.97;5111561;28;20281;-64
2021/01/17 11:22:37;;;;;;;11.27;7.23;;;;;;;-1.05;59.16;95450.53;5111210;28;20276;-65
2021/01/17 11:25:05;;;;;;;13.40;7.03;;;;;;;-1.41;57.85;95450.69;5111096;28;20690;-65
2021/01/17 11:27:36;;;;;;;12.90;8.33;;;;;;;-1.56;57.60;95458.75;5110964;28;20223;-63
2021/01/17 11:30:04;;;;;;;16.03;6.67;;;;;;;-1.54;59.66;95450.88;5110991;28;20200;-65
2021/01/17 11:32:34;;;;;;;10.87;6.60;;;;;;;-1.76;57.63;95448.84;5110979;28;20262;-64
2021/01/17 11:35:03;;;;;;;11.50;6.93;;;;;;;-1.57;58.08;95443.69;5110787;28;20253;-64